createdAt,value
2018-10-09T00:00:16.340Z,74.75
2018-10-09T00:02:42.654Z,74.73
2018-10-09T00:05:09.018Z,73.90
2018-10-09T00:07:35.331Z,74.23
2018-10-09T00:10:01.668Z,74.07
2018-10-09T00:12:28.030Z,74.01
2018-10-09T00:14:54.373Z,74.32
2018-10-09T00:17:20.711Z,74.35
2018-10-09T00:19:47.075Z,74.28
2018-10-09T00:22:13.425Z,74.40
2018-10-09T00:24:39.728Z,74.57
2018-10-09T00:27:06.111Z,74.77
2018-10-09T00:29:32.426Z,74.99
2018-10-09T00:31:58.770Z,75.28
2018-10-09T00:34:25.126Z,75.59
2018-10-09T00:36:51.459Z,75.36
2018-10-09T00:39:17.794Z,74.37
2018-10-09T00:41:44.155Z,74.28
2018-10-09T00:44:10.472Z,74.85
2018-10-09T00:46:36.807Z,74.68
2018-10-09T00:49:03.172Z,74.78
2018-10-09T00:51:29.490Z,74.95
2018-10-09T00:53:55.854Z,75.80
2018-10-09T00:56:22.168Z,76.30
2018-10-09T00:58:48.507Z,76.69
2018-10-09T01:01:14.865Z,77.02
2018-10-09T01:03:41.184Z,76.50
2018-10-09T01:06:07.497Z,76.47
2018-10-09T01:08:33.858Z,76.54
2018-10-09T01:11:00.170Z,77.06
2018-10-09T01:13:26.485Z,76.90
2018-10-09T01:15:52.842Z,76.80
2018-10-09T01:18:19.154Z,76.50
2018-10-09T01:20:45.470Z,77.00
2018-10-09T01:23:11.826Z,76.66
2018-10-09T01:25:38.145Z,77.17
2018-10-09T01:28:04.487Z,77.50
2018-10-09T01:30:30.829Z,77.71
2018-10-09T01:32:57.141Z,78.31
2018-10-09T01:35:23.515Z,77.82
2018-10-09T01:37:49.857Z,77.88
2018-10-09T01:40:16.197Z,77.98
2018-10-09T01:42:42.519Z,77.96
2018-10-09T01:45:08.852Z,78.26
2018-10-09T01:47:35.232Z,78.37
2018-10-09T01:50:01.546Z,78.70
2018-10-09T01:52:27.893Z,78.66
2018-10-09T01:54:54.245Z,78.51
2018-10-09T01:57:20.562Z,78.77
2018-10-09T01:59:46.920Z,79.22
2018-10-09T02:02:13.231Z,79.53
2018-10-09T02:04:39.547Z,79.27
2018-10-09T02:07:05.862Z,78.80
2018-10-09T02:09:32.198Z,79.19
2018-10-09T02:11:58.584Z,79.70
2018-10-09T02:14:24.897Z,79.82
2018-10-09T02:16:51.208Z,80.10
2018-10-09T02:19:17.602Z,80.25
2018-10-09T02:21:43.934Z,80.12
2018-10-09T02:24:10.272Z,79.87
2018-10-09T02:26:36.637Z,79.05
2018-10-09T02:29:02.989Z,78.94
2018-10-09T02:31:29.302Z,78.58
2018-10-09T02:33:55.644Z,79.01
2018-10-09T02:36:21.925Z,78.67
2018-10-09T02:38:48.308Z,78.56
2018-10-09T02:41:14.647Z,78.66
2018-10-09T02:43:40.962Z,78.39
2018-10-09T02:46:07.300Z,78.62
2018-10-09T02:48:33.617Z,78.60
2018-10-09T02:50:59.997Z,78.82
2018-10-09T02:53:26.340Z,79.22
2018-10-09T02:55:52.655Z,79.92
2018-10-09T02:58:19.015Z,79.42
2018-10-09T03:00:45.327Z,78.79
2018-10-09T03:03:11.663Z,78.93
2018-10-09T03:05:38.021Z,79.52
2018-10-09T03:08:04.354Z,79.57
2018-10-09T03:10:30.672Z,79.69
2018-10-09T03:12:57.025Z,79.53
2018-10-09T03:15:23.336Z,79.96
2018-10-09T03:17:49.646Z,79.82
2018-10-09T03:20:16.027Z,79.72
2018-10-09T03:22:42.367Z,79.91
2018-10-09T03:25:08.684Z,80.19
2018-10-09T03:27:35.039Z,80.52
2018-10-09T03:30:01.387Z,80.52
2018-10-09T03:32:27.757Z,80.82
2018-10-09T03:34:54.076Z,80.64
2018-10-09T03:37:20.393Z,80.46
2018-10-09T03:39:46.734Z,80.70
2018-10-09T03:42:13.056Z,80.31
2018-10-09T03:44:39.364Z,80.88
2018-10-09T03:47:05.721Z,81.38
2018-10-09T03:49:32.068Z,81.56
2018-10-09T03:51:58.376Z,81.79
2018-10-09T03:54:24.684Z,82.16
2018-10-09T03:56:51.037Z,82.19
2018-10-09T03:59:17.348Z,82.53
2018-10-09T04:01:43.682Z,82.94
2018-10-09T04:04:10.059Z,81.96
2018-10-09T04:06:36.407Z,81.74
2018-10-09T04:09:02.728Z,81.56
2018-10-09T04:11:29.100Z,81.61
2018-10-09T04:13:55.438Z,81.36
2018-10-09T04:16:21.778Z,81.35
2018-10-09T04:18:48.154Z,81.43
2018-10-09T04:21:14.534Z,81.31
2018-10-09T04:23:40.843Z,81.57
2018-10-09T04:26:07.224Z,81.76
2018-10-09T04:28:33.536Z,82.00
2018-10-09T04:30:59.849Z,82.06
2018-10-09T04:33:26.237Z,81.51
2018-10-09T04:35:52.549Z,82.00
2018-10-09T04:38:18.992Z,82.18
2018-10-09T04:40:45.340Z,81.81
2018-10-09T04:43:11.648Z,82.02
2018-10-09T04:45:38.057Z,82.05
2018-10-09T04:48:04.358Z,81.68
2018-10-09T04:50:30.694Z,81.02
2018-10-09T04:52:57.016Z,80.24
2018-10-09T04:55:23.360Z,80.00
2018-10-09T04:57:49.677Z,79.25
2018-10-09T05:00:15.986Z,79.11
2018-10-09T05:02:42.341Z,78.12
2018-10-09T05:05:08.654Z,77.79
2018-10-09T05:07:34.983Z,76.62
2018-10-09T05:10:01.341Z,76.18
2018-10-09T05:12:27.677Z,75.22
2018-10-09T05:14:53.990Z,74.12
2018-10-09T05:17:20.371Z,73.32
2018-10-09T05:19:46.686Z,72.90
2018-10-09T05:22:13.037Z,71.86
2018-10-09T05:24:39.419Z,71.49
2018-10-09T05:27:05.750Z,71.17
2018-10-09T05:29:32.070Z,71.19
2018-10-09T05:31:58.385Z,70.43
2018-10-09T05:34:24.697Z,69.75
2018-10-09T05:36:51.060Z,69.29
2018-10-09T05:39:17.369Z,68.81
2018-10-09T05:41:43.708Z,68.22
2018-10-09T05:44:10.460Z,67.34
2018-10-09T05:46:36.787Z,66.62
2018-10-09T05:49:03.107Z,65.66
2018-10-09T05:51:29.429Z,65.48
2018-10-09T05:53:56.858Z,66.02
2018-10-09T05:56:23.230Z,66.20
2018-10-09T05:58:49.574Z,65.95
2018-10-09T06:01:15.891Z,65.30
2018-10-09T06:03:42.209Z,64.86
2018-10-09T06:06:08.548Z,64.29
2018-10-09T06:08:34.978Z,63.47
2018-10-09T06:11:01.353Z,62.78
2018-10-09T06:13:27.662Z,62.23
2018-10-09T06:15:54.634Z,61.47
2018-10-09T06:18:20.942Z,60.98
2018-10-09T06:20:47.258Z,59.98
2018-10-09T06:23:13.649Z,60.05
2018-10-09T06:25:39.994Z,59.31
2018-10-09T06:28:06.377Z,59.74
2018-10-09T06:30:32.622Z,59.53
2018-10-09T06:32:58.937Z,58.83
2018-10-09T06:35:25.304Z,58.74
2018-10-09T06:37:51.647Z,58.33
2018-10-09T06:40:17.985Z,58.97
2018-10-09T06:42:44.470Z,58.43
2018-10-09T06:45:10.707Z,58.07
2018-10-09T06:47:37.219Z,57.47
2018-10-09T06:50:03.410Z,56.72
2018-10-09T06:52:29.722Z,56.50
2018-10-09T06:54:56.144Z,55.94
2018-10-09T06:57:22.422Z,54.97
2018-10-09T06:59:48.767Z,54.11
2018-10-09T07:02:15.148Z,52.80
2018-10-09T07:04:41.494Z,53.54
2018-10-09T07:07:07.832Z,55.76
2018-10-09T07:09:34.191Z,55.98
2018-10-09T07:12:00.529Z,55.35
2018-10-09T07:14:26.845Z,54.64
2018-10-09T07:16:53.202Z,53.15
2018-10-09T07:19:19.527Z,52.48
2018-10-09T07:21:45.877Z,51.52
2018-10-09T07:24:12.193Z,50.30
2018-10-09T07:26:38.534Z,49.80
2018-10-09T07:29:05.003Z,49.42
2018-10-09T07:31:31.401Z,49.83
2018-10-09T07:33:59.956Z,48.77
2018-10-09T07:36:24.339Z,49.18
2018-10-09T07:38:50.655Z,49.18
2018-10-09T07:41:16.968Z,48.77
2018-10-09T07:43:43.356Z,48.72
2018-10-09T07:46:09.640Z,47.44
2018-10-09T07:48:35.960Z,47.20
2018-10-09T07:51:04.821Z,47.14
2018-10-09T07:53:31.143Z,47.25
2018-10-09T07:55:57.463Z,45.58
2018-10-09T07:58:23.789Z,46.02
2018-10-09T08:00:50.113Z,47.00
2018-10-09T08:03:16.462Z,46.54
2018-10-09T08:05:42.779Z,45.73
2018-10-09T08:08:09.098Z,44.85
2018-10-09T08:10:35.494Z,45.18
2018-10-09T08:13:15.599Z,44.83
2018-10-09T08:15:42.268Z,43.42
2018-10-09T08:18:08.510Z,43.95
2018-10-09T08:20:34.924Z,44.65
2018-10-09T08:23:01.262Z,44.10
2018-10-09T08:25:27.515Z,43.96
2018-10-09T08:27:55.570Z,43.96
2018-10-09T08:30:21.833Z,42.97
2018-10-09T08:32:48.188Z,42.91
2018-10-09T08:35:14.503Z,42.84
2018-10-09T08:37:40.814Z,42.30
2018-10-09T08:40:07.180Z,42.57
2018-10-09T08:42:33.494Z,41.51
2018-10-09T08:44:59.813Z,42.33
2018-10-09T08:47:26.166Z,42.21
2018-10-09T08:49:52.483Z,41.99
2018-10-09T08:52:18.837Z,42.29
2018-10-09T08:54:45.154Z,42.56
2018-10-09T08:57:11.477Z,41.06
2018-10-09T08:59:37.788Z,41.61
2018-10-09T09:02:04.102Z,40.67
2018-10-09T09:04:30.601Z,40.62
2018-10-09T09:06:56.918Z,40.39
2018-10-09T09:09:23.233Z,40.35
2018-10-09T09:11:49.595Z,40.60
2018-10-09T09:14:15.913Z,39.14
2018-10-09T09:16:42.231Z,38.86
2018-10-09T09:19:08.601Z,38.99
2018-10-09T09:21:37.272Z,39.43
2018-10-09T09:24:03.550Z,39.28
2018-10-09T09:26:29.920Z,38.84
2018-10-09T09:28:56.226Z,38.13
2018-10-09T09:31:22.576Z,38.23
2018-10-09T09:33:48.865Z,39.16
2018-10-09T09:36:15.181Z,38.77
2018-10-09T09:38:41.581Z,38.26
2018-10-09T09:41:07.887Z,37.30
2018-10-09T09:43:34.244Z,36.66
2018-10-09T09:46:00.649Z,36.51
2018-10-09T09:48:26.872Z,37.39
2018-10-09T09:50:53.740Z,37.14
2018-10-09T09:53:21.173Z,35.65
2018-10-09T09:55:46.533Z,35.25
2018-10-09T09:58:12.964Z,34.32
2018-10-09T10:00:39.177Z,34.82
2018-10-09T10:03:05.494Z,34.25
2018-10-09T10:05:31.855Z,34.99
2018-10-09T10:07:58.192Z,34.96
2018-10-09T10:10:24.501Z,34.48
2018-10-09T10:12:50.866Z,33.20
2018-10-09T10:15:17.185Z,34.20
2018-10-09T10:17:43.509Z,33.15
2018-10-09T10:20:10.187Z,33.95
2018-10-09T10:22:36.518Z,33.51
2018-10-09T10:25:02.882Z,33.27
2018-10-09T10:27:29.194Z,33.84
2018-10-09T10:29:55.521Z,33.27
2018-10-09T10:32:21.835Z,33.34
2018-10-09T10:34:48.199Z,34.08
2018-10-09T10:37:14.522Z,33.19
2018-10-09T10:39:40.860Z,32.85
2018-10-09T10:42:07.279Z,31.82
2018-10-09T10:44:33.540Z,31.61
2018-10-09T10:46:59.855Z,32.36
2018-10-09T10:49:26.284Z,32.65
2018-10-09T10:51:52.543Z,31.74
2018-10-09T10:54:18.859Z,31.68
2018-10-09T10:56:45.184Z,31.44
2018-10-09T10:59:11.504Z,31.08
2018-10-09T11:01:37.837Z,30.11
2018-10-09T11:04:04.154Z,31.01
2018-10-09T11:06:30.514Z,29.73
2018-10-09T11:08:56.880Z,30.31
2018-10-09T11:11:23.165Z,30.08
2018-10-09T11:13:49.491Z,30.13
2018-10-09T11:16:15.807Z,29.78
2018-10-09T11:18:42.192Z,30.90
2018-10-09T11:21:08.621Z,31.00
2018-10-09T11:23:34.859Z,30.40
2018-10-09T11:26:01.237Z,29.93
2018-10-09T11:28:27.560Z,29.62
2018-10-09T11:30:53.901Z,31.07
2018-10-09T11:33:20.287Z,31.15
2018-10-09T11:35:46.602Z,30.27
2018-10-09T11:38:12.913Z,29.25
2018-10-09T11:40:39.239Z,30.08
2018-10-09T11:43:05.554Z,30.11
2018-10-09T11:45:31.933Z,29.07
2018-10-09T11:47:58.275Z,31.25
2018-10-09T11:50:24.595Z,32.01
2018-10-09T11:52:50.982Z,31.09
2018-10-09T11:55:17.305Z,30.85
2018-10-09T11:57:43.640Z,30.82
2018-10-09T12:00:10.020Z,28.96
2018-10-09T12:02:36.372Z,30.14
2018-10-09T12:05:02.682Z,29.79
2018-10-09T12:07:29.097Z,28.78
2018-10-09T12:09:55.438Z,29.50
2018-10-09T12:12:21.790Z,30.43
2018-10-09T12:14:48.112Z,30.49
2018-10-09T12:17:14.432Z,31.00
2018-10-09T12:19:40.791Z,31.00
2018-10-09T12:22:07.111Z,30.21
2018-10-09T12:24:33.460Z,30.79
2018-10-09T12:26:59.891Z,30.26
2018-10-09T12:29:26.147Z,30.36
2018-10-09T12:31:52.488Z,29.76
2018-10-09T12:34:18.853Z,30.09
2018-10-09T12:36:45.240Z,29.86
2018-10-09T12:39:11.585Z,29.78
2018-10-09T12:41:37.964Z,30.68
2018-10-09T12:44:04.343Z,29.47
2018-10-09T12:46:30.652Z,29.14
2018-10-09T12:48:57.013Z,28.80
2018-10-09T12:51:23.360Z,28.44
2018-10-09T12:53:49.671Z,29.34
2018-10-09T12:56:16.051Z,28.62
2018-10-09T12:58:42.445Z,29.80
2018-10-09T13:01:08.705Z,30.18
2018-10-09T13:03:35.087Z,31.34
2018-10-09T13:06:01.381Z,31.89
2018-10-09T13:08:27.693Z,32.01
2018-10-09T13:10:54.039Z,32.88
2018-10-09T13:13:20.355Z,32.96
2018-10-09T13:15:46.704Z,33.43
2018-10-09T13:18:13.023Z,33.91
2018-10-09T13:20:39.415Z,34.10
2018-10-09T13:23:05.752Z,34.50
2018-10-09T13:25:32.089Z,34.33
2018-10-09T13:27:58.464Z,34.64
2018-10-09T13:30:24.827Z,35.13
2018-10-09T13:32:51.174Z,35.11
2018-10-09T13:35:17.564Z,35.26
2018-10-09T13:37:43.884Z,35.27
2018-10-09T13:40:10.231Z,35.49
2018-10-09T13:42:36.602Z,36.65
2018-10-09T13:45:02.943Z,37.42
2018-10-09T13:47:29.353Z,38.00
2018-10-09T13:49:55.649Z,38.14
2018-10-09T13:52:21.945Z,37.75
2018-10-09T13:54:48.262Z,37.46
2018-10-09T13:57:14.674Z,37.65
2018-10-09T13:59:40.993Z,37.20
2018-10-09T14:02:07.297Z,36.78
2018-10-09T14:04:33.658Z,36.73
2018-10-09T14:06:59.982Z,36.78
2018-10-09T14:09:26.301Z,36.97
2018-10-09T14:11:52.748Z,37.02
2018-10-09T14:14:19.070Z,36.86
2018-10-09T14:16:45.395Z,37.13
2018-10-09T14:19:11.756Z,37.39
2018-10-09T14:21:38.076Z,37.94
2018-10-09T14:24:04.417Z,38.05
2018-10-09T14:26:30.802Z,38.12
2018-10-09T14:28:57.155Z,38.39
2018-10-09T14:31:23.471Z,38.69
2018-10-09T14:33:49.833Z,38.64
2018-10-09T14:36:16.171Z,38.80
2018-10-09T14:38:42.511Z,38.57
2018-10-09T14:41:08.834Z,38.92
2018-10-09T14:43:35.176Z,39.47
2018-10-09T14:46:01.499Z,39.80
2018-10-09T14:48:27.932Z,39.63
2018-10-09T14:50:54.313Z,39.88
2018-10-09T14:53:20.669Z,39.59
2018-10-09T14:55:47.007Z,39.99
2018-10-09T14:58:13.396Z,39.96
2018-10-09T15:00:39.710Z,40.39
2018-10-09T15:03:06.055Z,40.77
2018-10-09T15:05:32.427Z,41.30
2018-10-09T15:07:58.742Z,41.29
2018-10-09T15:10:25.085Z,41.80
2018-10-09T15:12:51.444Z,42.06
2018-10-09T15:15:17.754Z,42.24
2018-10-09T15:17:44.092Z,42.47
2018-10-09T15:20:10.473Z,42.57
2018-10-09T15:22:36.808Z,42.93
2018-10-09T15:25:03.145Z,43.22
2018-10-09T15:27:29.501Z,43.31
2018-10-09T15:29:55.849Z,43.64
2018-10-09T15:32:22.197Z,43.75
2018-10-09T15:34:48.528Z,43.97
2018-10-09T15:37:14.838Z,44.30
2018-10-09T15:39:41.218Z,44.72
2018-10-09T15:42:07.546Z,44.93
2018-10-09T15:44:33.891Z,45.08
2018-10-09T15:47:00.251Z,45.23
2018-10-09T15:49:26.563Z,45.65
2018-10-09T15:51:52.879Z,45.71
2018-10-09T15:54:19.580Z,45.84
2018-10-09T15:56:45.900Z,46.12
2018-10-09T15:59:12.245Z,46.41
2018-10-09T16:01:38.599Z,46.81
2018-10-09T16:04:04.963Z,47.04
2018-10-09T16:06:31.292Z,47.41
2018-10-09T16:08:57.608Z,47.69
2018-10-09T16:11:24.004Z,47.96
2018-10-09T16:13:51.488Z,48.51
2018-10-09T16:16:17.828Z,49.04
2018-10-09T16:18:44.146Z,49.29
2018-10-09T16:21:10.507Z,49.61
2018-10-09T16:23:36.826Z,49.82
2018-10-09T16:26:03.164Z,49.99
2018-10-09T16:28:29.541Z,50.25
2018-10-09T16:30:55.881Z,50.48
2018-10-09T16:33:22.224Z,50.89
2018-10-09T16:35:48.604Z,50.85
2018-10-09T16:38:14.930Z,51.00
2018-10-09T16:40:41.250Z,51.09
2018-10-09T16:43:07.608Z,51.29
2018-10-09T16:45:33.948Z,51.18
2018-10-09T16:48:00.319Z,51.58
2018-10-09T16:50:26.676Z,51.97
2018-10-09T16:52:52.996Z,52.56
2018-10-09T16:55:19.315Z,52.80
2018-10-09T16:57:45.704Z,53.71
2018-10-09T17:00:12.041Z,53.46
2018-10-09T17:02:38.378Z,53.76
2018-10-09T17:05:04.745Z,53.60
2018-10-09T17:07:31.065Z,53.46
2018-10-09T17:09:57.401Z,53.26
2018-10-09T17:12:23.786Z,53.20
2018-10-09T17:14:50.109Z,53.25
2018-10-09T17:17:16.456Z,52.95
2018-10-09T17:19:42.894Z,53.41
2018-10-09T17:22:09.221Z,53.80
2018-10-09T17:24:35.526Z,53.65
2018-10-09T17:27:04.474Z,53.64
2018-10-09T17:29:28.473Z,54.03
2018-10-09T17:31:54.816Z,53.84
2018-10-09T17:34:21.202Z,54.08
2018-10-09T17:36:47.503Z,54.83
2018-10-09T17:39:13.863Z,54.67
2018-10-09T17:41:40.208Z,55.08
2018-10-09T17:44:06.549Z,55.16
2018-10-09T17:46:32.980Z,55.34
2018-10-09T17:48:59.211Z,55.20
2018-10-09T17:51:25.578Z,55.20
2018-10-09T17:53:51.987Z,55.57
2018-10-09T17:56:18.280Z,55.97
2018-10-09T17:58:44.606Z,56.50
2018-10-09T18:01:10.922Z,56.72
2018-10-09T18:03:37.306Z,55.96
2018-10-09T18:06:03.645Z,56.40
2018-10-09T18:08:30.406Z,56.92
2018-10-09T18:10:57.155Z,57.51
2018-10-09T18:13:23.529Z,58.14
2018-10-09T18:15:49.879Z,58.18
2018-10-09T18:18:16.225Z,57.85
2018-10-09T18:20:42.693Z,58.37
2018-10-09T18:23:09.027Z,57.54
2018-10-09T18:25:35.415Z,58.30
2018-10-09T18:28:01.749Z,58.19
2018-10-09T18:30:28.071Z,57.82
2018-10-09T18:32:54.565Z,58.24
2018-10-09T18:35:20.752Z,58.58
2018-10-09T18:37:47.094Z,58.68
2018-10-09T18:40:13.416Z,59.10
2018-10-09T18:42:39.800Z,59.83
2018-10-09T18:45:06.110Z,58.94
2018-10-09T18:47:32.453Z,58.68
2018-10-09T18:49:58.832Z,58.09
2018-10-09T18:52:25.151Z,58.53
2018-10-09T18:54:51.496Z,59.37
2018-10-09T18:57:17.903Z,59.82
2018-10-09T18:59:44.252Z,60.19
2018-10-09T19:02:10.600Z,61.05
2018-10-09T19:04:37.020Z,61.25
2018-10-09T19:07:03.307Z,61.25
2018-10-09T19:09:29.651Z,61.36
2018-10-09T19:11:56.020Z,62.02
2018-10-09T19:14:22.334Z,62.06
2018-10-09T19:16:48.679Z,62.57
2018-10-09T19:19:15.046Z,62.86
2018-10-09T19:21:41.369Z,63.75
2018-10-09T19:24:08.035Z,63.25
2018-10-09T19:26:34.652Z,64.06
2018-10-09T19:29:00.998Z,63.75
2018-10-09T19:31:27.356Z,63.91
2018-10-09T19:33:53.703Z,63.92
2018-10-09T19:36:20.031Z,63.97
2018-10-09T19:38:46.437Z,63.16
2018-10-09T19:41:12.823Z,62.91
2018-10-09T19:43:39.162Z,63.15
2018-10-09T19:46:05.567Z,63.87
2018-10-09T19:48:31.886Z,63.34
2018-10-09T19:50:58.416Z,63.43
2018-10-09T19:53:24.694Z,63.59
2018-10-09T19:55:51.010Z,63.71
2018-10-09T19:58:17.369Z,63.48
2018-10-09T20:00:43.733Z,63.35
2018-10-09T20:03:10.053Z,63.29
2018-10-09T20:05:36.444Z,63.64
2018-10-09T20:08:02.813Z,63.57
2018-10-09T20:10:29.152Z,64.31
2018-10-09T20:12:55.513Z,64.91
2018-10-09T20:15:21.853Z,65.46
2018-10-09T20:17:48.196Z,66.29
2018-10-09T20:20:14.579Z,66.66
2018-10-09T20:22:40.932Z,65.97
2018-10-09T20:25:07.258Z,65.82
2018-10-09T20:27:33.664Z,66.00
2018-10-09T20:30:00.015Z,65.59
2018-10-09T20:32:26.330Z,65.71
2018-10-09T20:34:52.664Z,65.93
2018-10-09T20:37:19.011Z,66.36
2018-10-09T20:39:45.377Z,66.28
2018-10-09T20:42:11.800Z,66.48
2018-10-09T20:44:38.139Z,67.51
2018-10-09T20:47:04.459Z,66.90
2018-10-09T20:49:30.780Z,67.47
2018-10-09T20:51:57.201Z,67.61
2018-10-09T20:54:23.517Z,67.94
2018-10-09T20:56:49.801Z,67.80
2018-10-09T20:59:16.471Z,68.23
2018-10-09T21:01:42.800Z,68.10
2018-10-09T21:04:09.135Z,67.99
2018-10-09T21:06:35.496Z,68.70
2018-10-09T21:09:01.835Z,69.71
2018-10-09T21:11:28.172Z,70.20
2018-10-09T21:13:54.528Z,70.89
2018-10-09T21:16:20.874Z,71.05
2018-10-09T21:18:47.192Z,71.26
2018-10-09T21:21:13.577Z,71.73
2018-10-09T21:23:39.898Z,71.48
2018-10-09T21:26:06.236Z,71.52
2018-10-09T21:28:33.080Z,71.76
2018-10-09T21:30:59.422Z,71.68
2018-10-09T21:33:25.756Z,70.55
2018-10-09T21:35:52.108Z,70.35
2018-10-09T21:38:18.430Z,71.07
2018-10-09T21:40:44.747Z,71.42
2018-10-09T21:43:11.108Z,72.32
2018-10-09T21:45:37.451Z,71.50
2018-10-09T21:48:03.812Z,71.90
2018-10-09T21:50:30.141Z,73.04
2018-10-09T21:52:56.485Z,72.69
2018-10-09T21:55:22.842Z,72.25
2018-10-09T21:57:49.155Z,71.56
2018-10-09T22:00:15.507Z,71.68
2018-10-09T22:02:42.124Z,72.32
2018-10-09T22:05:08.471Z,72.36
2018-10-09T22:07:34.794Z,72.75
2018-10-09T22:10:01.166Z,72.76
2018-10-09T22:12:27.505Z,72.95
2018-10-09T22:14:53.817Z,73.33
2018-10-09T22:17:20.168Z,73.61
2018-10-09T22:19:46.517Z,74.25
2018-10-09T22:22:12.896Z,74.39
2018-10-09T22:24:39.214Z,73.69
2018-10-09T22:27:05.555Z,73.58
2018-10-09T22:29:31.892Z,73.42
2018-10-09T22:31:58.257Z,73.68
2018-10-09T22:34:24.596Z,73.88
2018-10-09T22:36:50.968Z,74.03
2018-10-09T22:39:17.380Z,73.70
2018-10-09T22:41:43.720Z,74.06
2018-10-09T22:44:10.033Z,74.37
2018-10-09T22:46:36.420Z,74.21
2018-10-09T22:49:02.738Z,74.10
2018-10-09T22:51:29.079Z,73.78
2018-10-09T22:53:55.472Z,74.07
2018-10-09T22:56:21.812Z,73.97
2018-10-09T22:58:48.128Z,74.40
2018-10-09T23:01:14.472Z,73.86
2018-10-09T23:03:40.799Z,74.44
2018-10-09T23:06:07.449Z,74.56
2018-10-09T23:08:33.767Z,74.48
2018-10-09T23:11:00.103Z,74.32
2018-10-09T23:13:26.426Z,75.12
2018-10-09T23:15:52.793Z,74.92
2018-10-09T23:18:19.154Z,75.25
2018-10-09T23:20:45.466Z,75.28
2018-10-09T23:23:11.781Z,75.09
2018-10-09T23:25:38.139Z,75.28
2018-10-09T23:28:04.458Z,75.28
2018-10-09T23:30:30.798Z,75.98
2018-10-09T23:32:57.185Z,75.79
2018-10-09T23:35:23.532Z,76.08
2018-10-09T23:37:49.907Z,76.06
2018-10-09T23:40:16.266Z,76.00
2018-10-09T23:42:42.627Z,76.05
2018-10-09T23:45:08.984Z,76.02
2018-10-09T23:47:35.324Z,76.56
2018-10-09T23:50:01.682Z,76.68
2018-10-09T23:52:28.025Z,76.77
2018-10-09T23:54:54.360Z,76.85
2018-10-09T23:57:20.748Z,76.43
2018-10-09T23:59:47.075Z,77.06
